Time;durP1;ratioP1;P1;durP2;ratioP2;P2;SDS_P1;SDS_P2;PMS_P1;PMS_P2;Temp;Humidity;BMP_temperature;BMP_pressure;BME280_temperature;BME280_humidity;BME280_pressure;Samples;Min_cycle;Max_cycle;Signal;HPM_P1;HPM_P2
2022/04/17 00:01:51;;;;;;;14.50;4.78;;;3.10;86.90;;;;;;4983626;28;20046;-88
2022/04/17 00:04:19;;;;;;;22.42;5.72;;;3.10;87.70;;;;;;4973527;28;20074;-88
2022/04/17 00:06:46;;;;;;;14.50;4.97;;;3.10;87.50;;;;;;4973145;28;20454;-91
2022/04/17 00:09:14;;;;;;;16.52;4.93;;;3.10;89.20;;;;;;4985630;28;20054;-90
2022/04/17 00:11:42;;;;;;;15.10;5.00;;;3.10;90.10;;;;;;4989667;28;20089;-88
2022/04/17 00:14:10;;;;;;;11.57;4.72;;;3.10;90.00;;;;;;4991104;28;20038;-88
2022/04/17 00:16:40;;;;;;;13.50;4.47;;;3.10;87.80;;;;;;4990915;28;20137;-87
2022/04/17 00:19:07;;;;;;;13.80;4.88;;;3.00;87.30;;;;;;4990873;28;20046;-85
2022/04/17 00:21:35;;;;;;;12.65;3.60;;;3.00;87.10;;;;;;4975539;28;20089;-85
2022/04/17 00:24:02;;;;;;;8.32;3.20;;;3.10;88.80;;;;;;4973351;28;20133;-87
2022/04/17 00:26:30;;;;;;;9.52;3.75;;;3.10;89.80;;;;;;4987154;28;20061;-90
2022/04/17 00:28:58;;;;;;;11.23;3.38;;;3.10;89.70;;;;;;4983692;28;20124;-89
2022/04/17 00:31:26;;;;;;;7.43;2.88;;;3.00;88.00;;;;;;4976418;28;20414;-89
2022/04/17 00:33:55;;;;;;;8.98;3.10;;;3.00;89.90;;;;;;4983638;28;20047;-89
2022/04/17 00:36:22;;;;;;;8.73;3.67;;;3.00;88.70;;;;;;4985346;28;20054;-88
2022/04/17 00:38:49;;;;;;;13.90;4.18;;;3.00;87.70;;;;;;4988140;28;20039;-88
2022/04/17 00:41:17;;;;;;;13.93;3.92;;;2.90;89.00;;;;;;4974478;28;20059;-89
2022/04/17 00:43:48;;;;;;;7.97;3.88;;;2.90;88.50;;;;;;4987508;28;20046;-89
2022/04/17 00:46:16;;;;;;;5.25;2.97;;;2.90;89.50;;;;;;4993529;28;20054;-89
2022/04/17 00:48:44;;;;;;;8.27;3.50;;;2.90;90.00;;;;;;4991223;28;20056;-85
2022/04/17 00:51:15;;;;;;;10.50;3.25;;;3.00;89.90;;;;;;4977458;28;20050;-85
2022/04/17 00:53:45;;;;;;;9.00;3.58;;;2.90;90.30;;;;;;4982220;28;20082;-86
2022/04/17 00:56:13;;;;;;;9.80;3.33;;;2.90;89.70;;;;;;4987358;28;20057;-85
2022/04/17 00:58:40;;;;;;;18.00;3.95;;;2.80;89.90;;;;;;4985962;28;20470;-86
2022/04/17 01:01:07;;;;;;;9.43;2.70;;;2.80;90.10;;;;;;4987989;28;20480;-86
2022/04/17 01:03:35;;;;;;;13.00;3.15;;;2.80;90.40;;;;;;4976422;28;20049;-87
2022/04/17 01:06:02;;;;;;;5.97;3.38;;;2.80;90.60;;;;;;4984106;28;20072;-86
2022/04/17 01:08:34;;;;;;;9.23;2.90;;;2.80;90.60;;;;;;4983673;28;20053;-85
2022/04/17 01:11:02;;;;;;;13.20;3.78;;;2.80;90.40;;;;;;4986409;28;20057;-85
2022/04/17 01:13:30;;;;;;;3.78;2.53;;;2.80;90.70;;;;;;4983313;28;20057;-84
2022/04/17 01:15:59;;;;;;;6.00;2.67;;;2.70;91.50;;;;;;4972764;28;20059;-86
2022/04/17 01:18:27;;;;;;;7.65;3.38;;;2.80;90.80;;;;;;4990676;28;20050;-84
2022/04/17 01:20:55;;;;;;;13.93;3.92;;;2.80;91.40;;;;;;4984332;28;20061;-84
2022/04/17 01:28:54;;;;;;;9.80;3.38;;;2.70;92.20;;;;;;4979501;28;20185;-86
2022/04/17 01:31:27;;;;;;;10.05;2.97;;;2.70;93.00;;;;;;4971616;28;20054;-87
2022/04/17 01:33:54;;;;;;;10.40;3.30;;;2.70;93.20;;;;;;4972547;28;20105;-86
2022/04/17 01:36:22;;;;;;;11.50;3.13;;;2.70;93.50;;;;;;4986810;28;20078;-87
2022/04/17 01:38:50;;;;;;;7.10;2.72;;;2.70;93.20;;;;;;4976657;28;20415;-85
2022/04/17 01:41:18;;;;;;;13.50;4.32;;;2.70;94.30;;;;;;4995788;28;20061;-86
2022/04/17 01:43:45;;;;;;;8.90;3.17;;;2.70;94.40;;;;;;5010684;28;20054;-85
2022/04/17 01:46:13;;;;;;;7.22;3.55;;;2.60;95.00;;;;;;4989857;28;20066;-88
2022/04/17 01:48:41;;;;;;;8.18;3.17;;;2.60;95.10;;;;;;4981679;28;20050;-88
2022/04/17 01:51:09;;;;;;;12.98;3.70;;;2.60;95.80;;;;;;4978456;28;20531;-87
2022/04/17 01:53:36;;;;;;;15.88;3.45;;;2.60;95.60;;;;;;4990367;28;20153;-86
2022/04/17 01:56:06;;;;;;;13.65;3.83;;;2.50;96.20;;;;;;4978605;28;20562;-87
2022/04/17 01:58:33;;;;;;;8.57;3.58;;;2.50;96.60;;;;;;4983428;28;20104;-87
2022/04/17 02:01:01;;;;;;;14.32;3.70;;;2.50;97.50;;;;;;4990860;28;20043;-88
2022/04/17 02:03:28;;;;;;;6.45;3.95;;;2.50;97.30;;;;;;5016964;28;20112;-89
2022/04/17 02:05:55;;;;;;;12.32;4.55;;;2.50;97.30;;;;;;4969494;28;20046;-87
2022/04/17 02:08:23;;;;;;;11.32;4.32;;;2.50;97.80;;;;;;4982956;28;20058;-90
2022/04/17 02:10:51;;;;;;;13.40;3.40;;;2.50;97.90;;;;;;4998792;28;20491;-87
2022/04/17 02:13:20;;;;;;;10.02;3.60;;;2.50;98.00;;;;;;4977537;28;20061;-89
2022/04/17 02:15:49;;;;;;;7.22;3.50;;;2.50;98.80;;;;;;4993055;28;20334;-87
2022/04/17 02:18:17;;;;;;;10.95;4.45;;;2.50;99.70;;;;;;4981750;28;20117;-88
2022/04/17 02:20:45;;;;;;;12.07;4.85;;;2.40;99.70;;;;;;5016245;28;20499;-88
2022/04/17 02:23:13;;;;;;;10.13;4.78;;;2.40;99.90;;;;;;4960665;28;20090;-88
2022/04/17 02:25:41;;;;;;;11.50;5.68;;;2.40;99.90;;;;;;4984953;28;20132;-89
2022/04/17 02:28:09;;;;;;;8.13;5.70;;;2.40;99.90;;;;;;4986485;28;20430;-84
2022/04/17 02:30:38;;;;;;;9.10;5.45;;;2.40;99.90;;;;;;4992770;28;20144;-83
2022/04/17 02:33:06;;;;;;;8.60;6.00;;;2.40;99.90;;;;;;4986411;28;20530;-84
2022/04/17 02:35:33;;;;;;;7.80;5.90;;;2.40;99.90;;;;;;4974968;28;20054;-83
2022/04/17 02:38:01;;;;;;;7.88;5.18;;;2.40;99.90;;;;;;4987022;28;20050;-82
2022/04/17 02:40:29;;;;;;;13.88;5.18;;;2.40;99.90;;;;;;4989360;28;20392;-83
2022/04/17 02:42:56;;;;;;;13.43;5.57;;;2.40;99.90;;;;;;4984963;28;20054;-82
2022/04/17 02:45:23;;;;;;;11.52;4.30;;;2.40;99.90;;;;;;4993614;28;20047;-81
2022/04/17 02:47:52;;;;;;;6.15;4.03;;;2.30;99.90;;;;;;4982151;28;20043;-81
2022/04/17 02:50:22;;;;;;;11.90;4.00;;;2.30;99.90;;;;;;4974397;28;20519;-82
2022/04/17 02:52:53;;;;;;;9.20;4.43;;;2.30;99.90;;;;;;4974754;28;20050;-83
2022/04/17 02:55:20;;;;;;;8.88;3.55;;;2.30;99.90;;;;;;4979775;28;20058;-82
2022/04/17 02:57:48;;;;;;;7.68;4.05;;;2.40;99.90;;;;;;4993929;28;20046;-82
2022/04/17 03:00:17;;;;;;;11.52;5.18;;;2.40;99.90;;;;;;4992701;28;20101;-83
2022/04/17 03:05:39;;;;;;;14.15;8.95;;;2.40;99.90;;;;;;4982489;28;20058;-82
2022/04/17 03:08:09;;;;;;;11.00;6.50;;;2.40;99.90;;;;;;4978155;28;20058;-83
2022/04/17 03:10:39;;;;;;;7.90;4.68;;;2.40;99.90;;;;;;4974305;28;20101;-83
2022/04/17 03:13:07;;;;;;;10.32;3.88;;;2.40;99.90;;;;;;4974241;28;20050;-83
2022/04/17 03:15:37;;;;;;;16.25;4.35;;;2.50;99.90;;;;;;4990605;28;20053;-84
2022/04/17 03:18:05;;;;;;;6.97;3.65;;;2.50;99.90;;;;;;4987349;28;20494;-85
2022/04/17 03:20:34;;;;;;;11.32;6.55;;;2.50;99.90;;;;;;5023642;28;20538;-86
2022/04/17 03:23:02;;;;;;;7.50;4.15;;;2.50;99.90;;;;;;5011011;28;20078;-86
2022/04/17 03:25:30;;;;;;;14.95;4.18;;;2.40;99.90;;;;;;4987930;28;20129;-88
2022/04/17 03:28:00;;;;;;;7.95;3.42;;;2.50;99.90;;;;;;4974021;28;20055;-87
2022/04/17 03:30:28;;;;;;;7.30;3.17;;;2.50;99.90;;;;;;4982554;28;20517;-86
2022/04/17 03:32:56;;;;;;;16.00;5.03;;;2.50;99.90;;;;;;4977104;28;20055;-87
2022/04/17 03:35:24;;;;;;;3.42;2.40;;;2.50;99.90;;;;;;4991064;28;20042;-84
2022/04/17 03:37:54;;;;;;;7.18;3.55;;;2.60;99.90;;;;;;4984399;28;20058;-83
2022/04/17 03:40:21;;;;;;;6.88;3.63;;;2.50;99.90;;;;;;4985311;28;20042;-86
2022/04/17 03:42:49;;;;;;;12.20;3.03;;;2.60;99.90;;;;;;4987419;28;20117;-87
2022/04/17 03:45:17;;;;;;;10.02;3.10;;;2.60;99.90;;;;;;4985469;28;20057;-86
2022/04/17 03:47:45;;;;;;;5.57;3.05;;;2.60;99.90;;;;;;4993849;28;20108;-85
2022/04/17 03:50:13;;;;;;;6.78;3.50;;;2.60;99.90;;;;;;5007769;28;20458;-86
2022/04/17 03:52:40;;;;;;;11.82;3.53;;;2.60;99.90;;;;;;4983373;28;20058;-84
2022/04/17 03:55:11;;;;;;;8.77;3.83;;;2.70;99.90;;;;;;4978859;28;20521;-87
2022/04/17 03:57:39;;;;;;;6.78;3.90;;;2.70;99.90;;;;;;4978644;28;20125;-87
2022/04/17 04:00:10;;;;;;;9.50;3.53;;;2.70;99.90;;;;;;4991813;28;20424;-85
2022/04/17 04:02:41;;;;;;;6.97;3.33;;;2.70;99.90;;;;;;4976136;28;20056;-85
2022/04/17 04:05:10;;;;;;;7.43;3.22;;;2.70;99.90;;;;;;4985734;28;20057;-87
2022/04/17 04:07:38;;;;;;;7.47;3.20;;;2.70;99.90;;;;;;4974551;28;20061;-83
2022/04/17 04:10:10;;;;;;;10.15;3.08;;;2.70;99.90;;;;;;4975566;28;20085;-84
2022/04/17 04:12:39;;;;;;;5.88;3.47;;;2.80;99.90;;;;;;4972188;28;20091;-84
2022/04/17 04:15:08;;;;;;;11.23;3.10;;;2.80;99.90;;;;;;4974251;28;20050;-83
2022/04/17 04:17:36;;;;;;;10.57;3.30;;;2.80;99.90;;;;;;4990832;28;20050;-84
2022/04/17 04:20:05;;;;;;;7.10;3.00;;;2.90;99.90;;;;;;4988771;28;20058;-81
2022/04/17 04:22:33;;;;;;;7.13;2.92;;;2.90;99.90;;;;;;4987380;28;20153;-84
2022/04/17 04:25:00;;;;;;;9.18;4.00;;;2.90;99.90;;;;;;4973826;28;20145;-84
2022/04/17 04:30:15;;;;;;;10.77;3.28;;;3.00;99.90;;;;;;5016660;28;20042;-83
2022/04/17 04:32:53;;;;;;;9.43;3.25;;;3.00;99.90;;;;;;4977512;28;21360;-86
2022/04/17 04:35:21;;;;;;;8.43;2.70;;;3.10;99.90;;;;;;5024754;28;20058;-85
2022/04/17 04:37:49;;;;;;;8.45;3.10;;;3.10;99.90;;;;;;4991176;28;20146;-82
2022/04/17 04:40:17;;;;;;;16.92;3.72;;;3.20;99.90;;;;;;4966446;28;20149;-81
2022/04/17 04:42:46;;;;;;;9.27;3.28;;;3.20;99.90;;;;;;4988485;28;20069;-80
2022/04/17 04:47:59;;;;;;;7.97;3.88;;;3.30;99.90;;;;;;4985850;28;20042;-81
2022/04/17 04:50:26;;;;;;;8.98;3.35;;;3.40;99.90;;;;;;4972591;28;20133;-81
2022/04/17 04:52:54;;;;;;;9.73;5.43;;;3.40;99.90;;;;;;4978365;28;20057;-81
2022/04/17 04:55:21;;;;;;;10.50;3.20;;;3.50;99.90;;;;;;4974188;28;20050;-83
2022/04/17 04:57:50;;;;;;;9.07;4.35;;;3.50;99.90;;;;;;4981207;28;20050;-83
2022/04/17 05:00:17;;;;;;;7.60;3.50;;;3.50;99.90;;;;;;4983364;28;20042;-82
2022/04/17 05:02:45;;;;;;;7.75;3.67;;;3.60;99.90;;;;;;5001867;28;20124;-84
2022/04/17 05:05:13;;;;;;;8.13;2.95;;;3.60;99.90;;;;;;4962081;28;20043;-82
2022/04/17 05:07:40;;;;;;;12.48;3.15;;;3.70;99.90;;;;;;4980830;28;20054;-83
2022/04/17 05:10:09;;;;;;;8.50;3.05;;;3.80;99.90;;;;;;4972165;28;20051;-83
2022/04/17 05:12:38;;;;;;;17.30;3.20;;;3.80;99.90;;;;;;4977153;28;20473;-83
2022/04/17 05:15:09;;;;;;;10.43;3.70;;;3.90;99.90;;;;;;4995340;28;20145;-82
2022/04/17 05:17:36;;;;;;;6.13;3.10;;;4.00;99.90;;;;;;4993360;28;20053;-82
2022/04/17 05:20:07;;;;;;;16.02;3.67;;;4.10;99.90;;;;;;4995602;28;20530;-83
2022/04/17 05:22:35;;;;;;;12.25;3.83;;;4.10;99.90;;;;;;4995536;28;20197;-83
2022/04/17 05:25:02;;;;;;;8.18;4.30;;;4.20;99.90;;;;;;4988066;28;20058;-82
2022/04/17 05:27:30;;;;;;;7.65;3.20;;;4.40;99.90;;;;;;4990859;28;20093;-82
2022/04/17 05:29:58;;;;;;;25.52;3.60;;;4.80;99.90;;;;;;4990475;28;20050;-81
2022/04/17 05:32:27;;;;;;;9.00;3.72;;;5.50;99.90;;;;;;4995033;28;20054;-81
2022/04/17 05:34:55;;;;;;;16.58;3.65;;;6.20;99.90;;;;;;4995405;28;20053;-79
2022/04/17 05:37:22;;;;;;;13.77;4.60;;;6.90;99.90;;;;;;4995434;28;20150;-80
2022/04/17 05:39:50;;;;;;;8.25;3.72;;;7.70;96.30;;;;;;4995133;28;20160;-80
2022/04/17 05:42:17;;;;;;;15.50;3.83;;;8.50;90.60;;;;;;5026508;28;20378;-79
2022/04/17 05:44:45;;;;;;;14.10;3.90;;;9.20;83.10;;;;;;4995056;28;20129;-80
2022/04/17 05:47:14;;;;;;;22.55;4.90;;;9.80;75.20;;;;;;5026531;28;20054;-82
2022/04/17 05:49:43;;;;;;;14.20;4.60;;;10.40;72.90;;;;;;4995146;28;20418;-80
2022/04/17 05:52:12;;;;;;;34.45;5.68;;;10.90;69.50;;;;;;5015371;28;20145;-80
2022/04/17 05:54:43;;;;;;;8.68;4.28;;;11.50;65.60;;;;;;4992142;28;20070;-82
2022/04/17 05:57:11;;;;;;;12.35;4.38;;;11.80;62.00;;;;;;4993093;28;20054;-79
2022/04/17 05:59:38;;;;;;;14.93;4.40;;;12.00;59.10;;;;;;4993270;28;20108;-79
2022/04/17 06:02:08;;;;;;;21.15;4.45;;;12.20;58.10;;;;;;4992630;28;20570;-78
2022/04/17 06:04:36;;;;;;;12.40;3.80;;;12.40;57.80;;;;;;4989445;28;20054;-81
2022/04/17 06:07:05;;;;;;;14.23;4.18;;;12.70;56.10;;;;;;4994559;28;20050;-81
2022/04/17 06:09:32;;;;;;;13.18;4.38;;;12.90;55.40;;;;;;4994526;28;20423;-81
2022/04/17 06:12:00;;;;;;;15.23;4.40;;;13.00;54.60;;;;;;4994757;28;20050;-79
2022/04/17 06:14:27;;;;;;;17.70;5.05;;;13.20;53.90;;;;;;4994724;28;20368;-79
2022/04/17 06:16:55;;;;;;;13.13;4.07;;;13.10;53.70;;;;;;4994401;28;20474;-80
2022/04/17 06:19:23;;;;;;;12.10;4.25;;;13.20;53.20;;;;;;4993008;28;20050;-84
2022/04/17 06:21:51;;;;;;;16.13;4.25;;;13.50;52.50;;;;;;4992301;28;20146;-83
2022/04/17 06:24:19;;;;;;;14.52;3.67;;;13.80;51.90;;;;;;4982094;28;20250;-83
2022/04/17 06:26:48;;;;;;;12.10;3.70;;;14.20;51.10;;;;;;4992071;28;20058;-85
2022/04/17 06:29:15;;;;;;;10.48;3.65;;;14.40;50.10;;;;;;4983359;28;20050;-82
2022/04/17 06:31:45;;;;;;;11.35;3.40;;;14.50;49.00;;;;;;4978518;28;20054;-83
2022/04/17 06:34:13;;;;;;;10.45;3.15;;;14.70;48.40;;;;;;4999185;28;20129;-84
2022/04/17 06:36:41;;;;;;;8.18;3.25;;;15.10;47.70;;;;;;4991940;28;20113;-83
2022/04/17 06:39:08;;;;;;;11.75;3.38;;;15.40;47.10;;;;;;4992410;28;20054;-85
2022/04/17 06:41:37;;;;;;;10.65;3.13;;;15.80;46.70;;;;;;4984704;28;20627;-84
2022/04/17 06:44:05;;;;;;;8.10;3.05;;;16.00;45.60;;;;;;4988958;28;20057;-86
2022/04/17 06:46:32;;;;;;;5.57;3.30;;;16.20;45.10;;;;;;4986709;28;20097;-84
2022/04/17 06:49:00;;;;;;;12.75;2.70;;;16.20;44.70;;;;;;4990012;28;20540;-82
2022/04/17 06:51:27;;;;;;;9.43;2.40;;;16.70;43.30;;;;;;4971601;28;20174;-81
2022/04/17 06:53:55;;;;;;;8.00;2.35;;;16.90;43.00;;;;;;4990304;28;20414;-83
2022/04/17 06:56:23;;;;;;;6.13;2.28;;;17.00;42.90;;;;;;4990956;28;20052;-85
2022/04/17 06:58:52;;;;;;;7.90;2.53;;;17.10;42.60;;;;;;4985856;28;20415;-84
2022/04/17 07:01:19;;;;;;;8.98;3.00;;;17.30;42.40;;;;;;4992273;28;20431;-82
2022/04/17 07:03:47;;;;;;;8.52;2.60;;;17.50;42.20;;;;;;4989181;28;20074;-86
2022/04/17 07:06:24;;;;;;;10.20;2.25;;;17.70;41.80;;;;;;4974731;28;20105;-84
2022/04/17 07:08:52;;;;;;;10.27;2.33;;;17.80;41.70;;;;;;4978510;28;20132;-82
2022/04/17 07:11:22;;;;;;;2.83;1.88;;;17.90;41.20;;;;;;5006533;28;20049;-84
2022/04/17 07:13:54;;;;;;;8.90;2.38;;;18.00;41.00;;;;;;4986701;28;21282;-89
2022/04/17 07:16:21;;;;;;;8.95;2.50;;;18.20;40.40;;;;;;4991306;28;20050;-85
2022/04/17 07:18:49;;;;;;;10.30;1.50;;;18.40;40.20;;;;;;5000599;28;20496;-86
2022/04/17 07:21:16;;;;;;;5.35;1.52;;;18.30;39.50;;;;;;5032029;28;20092;-81
2022/04/17 07:23:46;;;;;;;5.93;1.42;;;18.50;39.00;;;;;;5009735;28;20148;-83
2022/04/17 07:26:17;;;;;;;3.50;1.60;;;18.80;38.40;;;;;;5023092;28;20049;-92
2022/04/17 07:28:46;;;;;;;3.70;1.48;;;19.10;37.80;;;;;;4996090;28;20058;-85
2022/04/17 07:31:15;;;;;;;4.82;1.75;;;19.20;37.70;;;;;;4985463;28;20467;-87
2022/04/17 07:33:42;;;;;;;5.55;1.70;;;19.10;37.50;;;;;;4996654;28;20104;-77
2022/04/17 07:36:10;;;;;;;5.00;1.80;;;18.90;37.90;;;;;;4989612;28;20137;-84
2022/04/17 07:38:37;;;;;;;8.43;1.63;;;19.20;37.50;;;;;;4985815;28;20046;-85
2022/04/17 07:41:05;;;;;;;6.88;1.60;;;19.40;37.70;;;;;;5005367;28;20057;-82
2022/04/17 07:43:32;;;;;;;3.85;1.40;;;19.70;37.00;;;;;;5016463;28;20181;-82
2022/04/17 07:46:00;;;;;;;1.50;1.40;;;20.30;36.30;;;;;;5002579;28;20065;-88
2022/04/17 07:48:29;;;;;;;3.60;1.63;;;20.70;36.10;;;;;;5003714;28;20474;-82
2022/04/17 07:50:56;;;;;;;8.65;2.20;;;20.80;35.60;;;;;;4989800;28;20483;-78
2022/04/17 07:53:24;;;;;;;7.43;1.63;;;20.80;35.50;;;;;;4986611;28;20112;-88
2022/04/17 07:55:51;;;;;;;4.07;1.55;;;20.70;36.10;;;;;;5002821;28;20132;-87
2022/04/17 07:58:25;;;;;;;6.60;1.48;;;20.80;35.30;;;;;;5011088;28;20144;-88
2022/04/17 08:00:58;;;;;;;9.82;1.73;;;21.00;35.00;;;;;;5008130;28;20044;-89
2022/04/17 08:03:46;;;;;;;3.90;1.83;;;21.20;34.70;;;;;;5012183;28;20058;-88
2022/04/17 08:06:16;;;;;;;5.80;2.25;;;21.40;34.80;;;;;;5012376;28;20041;-87
2022/04/17 08:08:45;;;;;;;7.07;1.63;;;21.40;34.80;;;;;;4990981;28;20061;-89
2022/04/17 08:11:16;;;;;;;5.00;1.23;;;21.30;33.70;;;;;;4987719;28;20050;-86
2022/04/17 08:13:44;;;;;;;3.50;1.20;;;21.20;33.80;;;;;;4979098;28;20519;-90
2022/04/17 08:16:11;;;;;;;5.63;2.00;;;21.10;34.10;;;;;;4992731;28;20046;-85
2022/04/17 08:18:40;;;;;;;5.55;1.20;;;21.40;33.60;;;;;;4987672;28;20072;-84
2022/04/17 08:21:08;;;;;;;5.97;1.40;;;21.80;33.30;;;;;;4989802;28;20046;-88
2022/04/17 08:23:37;;;;;;;6.22;1.48;;;22.10;33.10;;;;;;4991469;28;20472;-83
2022/04/17 08:26:06;;;;;;;3.50;1.42;;;22.40;33.20;;;;;;4991151;28;20157;-80
2022/04/17 08:28:33;;;;;;;5.97;1.15;;;22.20;33.70;;;;;;4989333;28;20048;-76
2022/04/17 08:31:01;;;;;;;6.40;1.52;;;22.40;34.00;;;;;;4992247;28;20058;-75
2022/04/17 08:33:29;;;;;;;4.53;1.20;;;22.60;33.00;;;;;;4990444;28;20148;-77
2022/04/17 08:35:59;;;;;;;4.75;1.00;;;22.50;33.30;;;;;;4990686;28;20046;-76
2022/04/17 08:38:26;;;;;;;82.60;5.53;;;22.10;33.40;;;;;;4978625;28;20150;-76
2022/04/17 08:40:58;;;;;;;7.90;1.50;;;22.20;33.30;;;;;;4989104;28;20503;-77
2022/04/17 08:43:28;;;;;;;6.50;1.27;;;22.40;32.70;;;;;;4975308;28;20109;-79
2022/04/17 08:45:55;;;;;;;3.97;2.03;;;22.60;32.00;;;;;;4985209;28;20045;-78
2022/04/17 08:48:23;;;;;;;6.80;1.13;;;22.80;32.30;;;;;;4989506;28;20066;-78
2022/04/17 08:50:53;;;;;;;3.28;1.02;;;23.10;31.80;;;;;;4992152;28;20058;-78
2022/04/17 08:53:23;;;;;;;7.22;1.00;;;23.40;31.70;;;;;;4965717;28;20465;-78
2022/04/17 08:55:52;;;;;;;6.45;1.50;;;23.60;32.20;;;;;;4979951;28;20058;-82
2022/04/17 08:58:22;;;;;;;4.90;1.25;;;23.40;32.00;;;;;;4987978;28;20090;-79
2022/04/17 09:00:50;;;;;;;4.18;1.65;;;23.10;31.70;;;;;;4998438;28;20042;-81
2022/04/17 09:03:17;;;;;;;1.17;1.00;;;23.00;32.50;;;;;;4974715;28;20140;-84
2022/04/17 09:05:45;;;;;;;4.43;1.23;;;23.40;32.40;;;;;;4978873;28;20047;-82
2022/04/17 09:08:15;;;;;;;2.22;1.20;;;23.50;31.80;;;;;;4990182;28;20082;-76
2022/04/17 09:10:55;;;;;;;4.53;1.27;;;23.70;32.60;;;;;;5017195;28;20157;-77
2022/04/17 09:13:31;;;;;;;10.30;1.40;;;23.70;32.40;;;;;;4999279;28;20050;-78
2022/04/17 09:15:59;;;;;;;4.25;1.33;;;23.90;32.40;;;;;;4972403;28;20051;-76
2022/04/17 09:18:31;;;;;;;5.35;1.20;;;23.90;31.90;;;;;;4986175;28;20125;-73
2022/04/17 09:21:01;;;;;;;16.17;1.67;;;24.00;31.00;;;;;;4980938;28;20388;-77
2022/04/17 09:23:37;;;;;;;14.18;1.38;;;24.30;31.00;;;;;;4988052;28;20054;-78
2022/04/17 09:26:08;;;;;;;8.05;1.73;;;24.60;31.20;;;;;;4991449;28;20050;-79
2022/04/17 09:28:37;;;;;;;3.47;1.30;;;24.50;31.30;;;;;;4994599;28;20556;-76
2022/04/17 09:31:11;;;;;;;5.07;1.30;;;24.50;31.10;;;;;;5001344;28;20045;-79
2022/04/17 09:33:42;;;;;;;7.43;1.52;;;24.50;31.50;;;;;;4976403;28;20069;-79
2022/04/17 09:36:10;;;;;;;7.35;1.23;;;24.40;31.60;;;;;;5013601;28;20493;-79
2022/04/17 09:38:37;;;;;;;3.22;2.15;;;24.30;31.40;;;;;;4971639;28;20511;-78
2022/04/17 09:41:09;;;;;;;3.53;1.20;;;24.10;31.10;;;;;;4983965;28;20132;-79
2022/04/17 09:43:37;;;;;;;4.88;1.30;;;23.90;31.50;;;;;;4981253;28;20113;-76
2022/04/17 09:46:06;;;;;;;4.55;1.48;;;23.70;30.90;;;;;;4989142;28;20046;-76
2022/04/17 09:48:36;;;;;;;4.22;1.48;;;23.20;32.00;;;;;;4984896;28;20150;-79
2022/04/17 09:51:22;;;;;;;6.10;1.63;;;22.80;32.10;;;;;;4971534;28;20046;-74
2022/04/17 09:53:58;;;;;;;4.15;1.15;;;23.10;32.30;;;;;;4975395;28;20610;-75
2022/04/17 09:56:37;;;;;;;3.50;1.60;;;23.30;31.90;;;;;;5016557;28;20054;-74
2022/04/17 09:59:17;;;;;;;7.65;1.33;;;23.60;31.70;;;;;;4995191;28;20096;-76
2022/04/17 10:01:46;;;;;;;5.20;1.08;;;23.90;32.20;;;;;;5002849;28;20070;-77
2022/04/17 10:04:16;;;;;;;6.13;1.55;;;24.20;31.80;;;;;;4996761;28;20070;-78
2022/04/17 10:06:44;;;;;;;7.78;1.52;;;24.40;31.50;;;;;;4981192;28;20043;-75
2022/04/17 10:09:12;;;;;;;5.47;1.23;;;24.60;31.70;;;;;;4987110;28;20050;-74
2022/04/17 10:11:41;;;;;;;4.47;1.42;;;24.70;31.60;;;;;;4991372;28;20054;-73
2022/04/17 10:14:09;;;;;;;4.57;1.50;;;24.70;31.40;;;;;;4984761;28;20149;-74
2022/04/17 10:16:42;;;;;;;165.77;8.82;;;24.40;31.10;;;;;;4989032;28;20138;-72
2022/04/17 10:19:14;;;;;;;14.30;1.17;;;24.40;31.50;;;;;;4994056;28;20518;-73
2022/04/17 10:21:42;;;;;;;4.65;1.33;;;24.50;31.50;;;;;;4987843;28;20491;-72
2022/04/17 10:24:13;;;;;;;7.28;1.45;;;24.80;31.50;;;;;;4982887;28;20043;-72
2022/04/17 10:26:48;;;;;;;1.80;0.90;;;24.90;31.10;;;;;;4988769;28;20137;-72
2022/04/17 10:29:23;;;;;;;6.45;1.20;;;25.10;30.60;;;;;;4993790;28;20113;-73
2022/04/17 10:32:17;;;;;;;3.78;1.17;;;25.00;31.30;;;;;;4994014;28;20054;-74
2022/04/17 10:35:32;;;;;;;3.85;1.00;;;25.30;30.80;;;;;;4986746;28;20129;-75
2022/04/17 10:38:25;;;;;;;9.43;1.63;;;25.50;30.10;;;;;;4974856;28;20142;-75
2022/04/17 10:40:56;;;;;;;4.35;1.50;;;25.90;30.60;;;;;;5002558;28;20038;-76
2022/04/17 10:43:25;;;;;;;9.45;1.25;;;25.80;30.00;;;;;;5002457;28;20558;-74
2022/04/17 10:46:14;;;;;;;9.23;1.65;;;25.80;30.00;;;;;;5004279;28;20128;-76
2022/04/17 10:48:49;;;;;;;3.45;1.08;;;25.40;31.10;;;;;;4992938;28;20058;-73
2022/04/17 10:51:22;;;;;;;5.57;1.00;;;25.00;30.10;;;;;;4995167;28;20507;-77
2022/04/17 10:54:10;;;;;;;3.67;0.88;;;24.70;30.30;;;;;;4973860;28;20059;-75
2022/04/17 10:56:39;;;;;;;3.63;0.88;;;23.90;31.30;;;;;;4983340;28;20073;-74
2022/04/17 10:59:17;;;;;;;3.10;1.20;;;23.10;31.30;;;;;;5011320;28;20060;-73
2022/04/17 11:01:56;;;;;;;2.47;1.00;;;22.40;31.70;;;;;;4994015;28;20046;-73
2022/04/17 11:04:27;;;;;;;2.50;0.80;;;21.70;32.70;;;;;;4975620;28;20066;-74
2022/04/17 11:07:19;;;;;;;2.97;0.93;;;21.60;32.60;;;;;;4992925;28;20038;-73
2022/04/17 11:09:47;;;;;;;4.38;1.20;;;21.70;33.90;;;;;;4987288;28;20101;-74
2022/04/17 11:12:27;;;;;;;3.03;1.17;;;22.50;33.30;;;;;;4981934;28;20468;-74
2022/04/17 11:15:22;;;;;;;3.88;0.93;;;23.30;32.30;;;;;;4996324;28;20096;-74
2022/04/17 11:17:51;;;;;;;15.60;1.23;;;23.80;31.80;;;;;;4997428;28;20056;-74
2022/04/17 11:20:21;;;;;;;1.00;0.90;;;24.40;31.10;;;;;;4983039;28;20078;-74
2022/04/17 11:22:49;;;;;;;11.50;1.17;;;24.90;30.00;;;;;;4984690;28;20053;-73
2022/04/17 11:25:16;;;;;;;4.47;2.05;;;25.20;30.50;;;;;;4980437;28;20523;-75
2022/04/17 11:27:50;;;;;;;7.90;2.17;;;25.50;30.00;;;;;;4976066;28;20388;-75
2022/04/17 11:30:38;;;;;;;2.53;0.98;;;25.70;29.70;;;;;;4988505;28;20051;-76
2022/04/17 11:33:07;;;;;;;2.72;1.50;;;26.10;29.80;;;;;;4992032;28;20050;-76
2022/04/17 11:35:36;;;;;;;2.95;1.42;;;26.50;30.00;;;;;;4981214;28;20050;-76
2022/04/17 11:38:07;;;;;;;6.85;1.30;;;26.70;29.90;;;;;;4985340;28;20061;-77
2022/04/17 11:40:37;;;;;;;2.97;1.20;;;26.80;29.30;;;;;;4991124;28;20050;-76
2022/04/17 11:43:10;;;;;;;3.80;1.02;;;27.10;29.40;;;;;;4976580;28;20051;-77
2022/04/17 11:45:43;;;;;;;1.83;1.17;;;27.10;29.20;;;;;;4971037;28;20074;-78
2022/04/17 11:48:13;;;;;;;2.33;1.52;;;26.90;29.00;;;;;;4981854;28;20530;-75
2022/04/17 11:50:42;;;;;;;3.65;1.08;;;26.60;28.90;;;;;;4988478;28;20055;-75
2022/04/17 11:53:15;;;;;;;5.93;1.33;;;26.70;29.50;;;;;;5010663;28;20050;-75
2022/04/17 11:55:45;;;;;;;3.53;1.02;;;26.70;28.90;;;;;;4977597;28;20058;-75
2022/04/17 11:58:14;;;;;;;4.07;1.17;;;26.60;29.30;;;;;;4985730;28;20039;-79
2022/04/17 12:00:43;;;;;;;9.45;1.95;;;26.50;29.00;;;;;;4980260;28;20121;-72
2022/04/17 12:03:11;;;;;;;5.35;1.20;;;26.70;29.40;;;;;;4990596;28;20442;-75
2022/04/17 12:05:39;;;;;;;17.27;1.65;;;26.90;29.10;;;;;;4997299;28;20061;-72
2022/04/17 12:08:10;;;;;;;2.35;0.90;;;26.90;28.70;;;;;;4976710;28;20053;-72
2022/04/17 12:10:40;;;;;;;2.33;1.30;;;27.20;29.40;;;;;;4985091;28;20108;-78
2022/04/17 12:13:17;;;;;;;13.02;2.22;;;27.30;29.80;;;;;;4987830;28;20116;-78
2022/04/17 12:15:48;;;;;;;3.33;1.27;;;27.30;29.60;;;;;;4984626;28;20472;-80
2022/04/17 12:18:20;;;;;;;9.23;1.30;;;27.20;29.10;;;;;;4980849;28;20056;-81
2022/04/17 12:21:02;;;;;;;3.42;1.13;;;27.10;29.40;;;;;;4974608;28;20050;-79
2022/04/17 12:23:32;;;;;;;3.53;1.17;;;27.10;29.50;;;;;;4983736;28;20476;-78
2022/04/17 12:26:02;;;;;;;1.75;1.23;;;27.00;29.20;;;;;;4977094;28;20047;-79
2022/04/17 12:28:29;;;;;;;5.57;1.25;;;26.70;29.40;;;;;;5002394;28;20046;-79
2022/04/17 12:30:58;;;;;;;4.57;1.40;;;26.90;29.40;;;;;;4978984;28;20525;-78
2022/04/17 12:33:28;;;;;;;8.23;2.42;;;27.00;29.20;;;;;;4989916;28;20057;-79
2022/04/17 12:36:07;;;;;;;49.38;4.38;;;26.90;29.70;;;;;;4975893;28;20134;-80
2022/04/17 12:38:36;;;;;;;5.15;1.30;;;26.80;29.50;;;;;;4990821;28;20089;-80
2022/04/17 12:41:19;;;;;;;4.82;1.50;;;26.80;29.10;;;;;;5001737;28;20046;-80
2022/04/17 12:43:49;;;;;;;6.38;1.50;;;26.80;29.10;;;;;;4976153;28;20053;-80
2022/04/17 12:46:27;;;;;;;5.57;1.20;;;27.10;29.60;;;;;;4987920;28;20411;-81
2022/04/17 12:49:07;;;;;;;6.32;1.30;;;27.20;29.30;;;;;;4975017;28;20046;-80
2022/04/17 12:51:35;;;;;;;6.65;4.00;;;27.50;29.20;;;;;;4990185;28;20046;-79
2022/04/17 12:54:07;;;;;;;7.20;1.27;;;27.60;28.70;;;;;;4999966;28;20450;-79
2022/04/17 12:56:35;;;;;;;6.80;2.22;;;27.70;28.90;;;;;;5001837;28;20069;-79
2022/04/17 12:59:04;;;;;;;8.90;2.00;;;27.60;28.90;;;;;;5007533;28;20683;-80
2022/04/17 13:01:37;;;;;;;9.43;1.77;;;27.50;29.00;;;;;;5006953;28;20121;-79
2022/04/17 13:04:16;;;;;;;5.85;1.60;;;27.70;29.50;;;;;;5007301;28;20145;-74
2022/04/17 13:06:44;;;;;;;7.38;1.35;;;27.70;28.90;;;;;;4993269;28;20043;-79
2022/04/17 13:09:18;;;;;;;7.65;1.08;;;27.80;29.00;;;;;;5000052;28;20065;-80
2022/04/17 13:11:50;;;;;;;5.63;1.17;;;27.90;28.50;;;;;;5006762;28;20050;-80
2022/04/17 13:14:19;;;;;;;10.30;1.52;;;27.80;28.80;;;;;;5003748;28;20605;-81
2022/04/17 13:16:57;;;;;;;1.95;1.40;;;27.70;28.80;;;;;;5005651;28;20035;-78